Chattaroy, Washington
Current Conditions -  °F | °C
As of 6:45 AM on Sunday 23 Nov 2014 (Local Time) from KDEW Reporting Station
Broken Clouds Broken Clouds  
Wind Chill: 28°   Ceiling: 1500
Heat Index: 28°   Visibility: 10mi
Dew Point: 27°   Wind: 3mph
Humidity: 96%   Direction: 160°SSE
Pressure: 30.12"   Gusts: NA
Location:  47.89°N, 117.36°W
Report Text: KDEW 231445Z AUTO 16003KT 10SM BKN015 M02/M03 A3012 RMK AO2 T10221028
Loading
Personal Weather Stations






























Interactive Weather Map New forecast layout! Learn more

10-Day Weather Forecast

Advertisements
Track Severe Weather on mobile